createdAt,value
2023-01-07T00:01:49.136Z,1012
2023-01-07T00:07:49.317Z,1012
2023-01-07T00:13:49.255Z,1012
2023-01-07T00:19:49.552Z,1012
2023-01-07T00:25:50.026Z,1012
2023-01-07T00:31:49.034Z,1012
2023-01-07T00:37:49.247Z,1012
2023-01-07T00:43:49.479Z,1011
2023-01-07T00:49:49.923Z,1011
2023-01-07T00:55:49.548Z,1011
2023-01-07T01:01:49.533Z,1011
2023-01-07T01:07:48.946Z,1011
2023-01-07T01:13:49.685Z,1011
2023-01-07T01:19:49.802Z,1011
2023-01-07T01:25:49.818Z,1011
2023-01-07T01:31:49.217Z,1011
2023-01-07T01:37:49.603Z,1011
2023-01-07T01:43:49.631Z,1011
2023-01-07T01:49:49.242Z,1011
2023-01-07T01:55:50.188Z,1011
2023-01-07T02:01:49.179Z,1011
2023-01-07T02:07:49.143Z,1011
2023-01-07T02:13:48.871Z,1011
2023-01-07T02:19:48.757Z,1011
2023-01-07T02:25:48.859Z,1011
2023-01-07T02:31:48.749Z,1011
2023-01-07T02:37:48.930Z,1011
2023-01-07T02:43:48.875Z,1011
2023-01-07T02:49:48.833Z,1011
2023-01-07T02:55:49.130Z,1011
2023-01-07T03:01:48.920Z,1011
2023-01-07T03:07:48.712Z,1011
2023-01-07T03:13:48.942Z,1011
2023-01-07T03:19:49.152Z,1011
2023-01-07T03:25:49.492Z,1011
2023-01-07T03:31:49.313Z,1011
2023-01-07T03:37:49.142Z,1011
2023-01-07T03:43:49.033Z,1011
2023-01-07T03:49:49.246Z,1010
2023-01-07T03:55:49.619Z,1010
2023-01-07T04:01:49.672Z,1010
2023-01-07T04:07:49.164Z,1010
2023-01-07T04:13:49.464Z,1010
2023-01-07T04:19:49.380Z,1010
2023-01-07T04:25:49.751Z,1010
2023-01-07T04:31:49.621Z,1010
2023-01-07T04:37:49.322Z,1010
2023-01-07T04:43:48.948Z,1010
2023-01-07T04:49:49.806Z,1010
2023-01-07T04:55:49.019Z,1010
2023-01-07T05:01:49.386Z,1010
2023-01-07T05:07:49.510Z,1010
2023-01-07T05:13:50.106Z,1010
2023-01-07T05:19:49.148Z,1010
2023-01-07T05:25:49.260Z,1010
2023-01-07T05:31:49.759Z,1010
2023-01-07T05:37:50.097Z,1010
2023-01-07T05:43:49.389Z,1009
2023-01-07T05:49:49.414Z,1009
2023-01-07T05:55:49.588Z,1009
2023-01-07T06:01:49.256Z,1009
2023-01-07T06:07:49.809Z,1009
2023-01-07T06:13:49.088Z,1009
2023-01-07T06:19:49.727Z,1009
2023-01-07T06:25:49.226Z,1009
2023-01-07T06:31:49.715Z,1009
2023-01-07T06:37:50.657Z,1009
2023-01-07T06:43:49.216Z,1009
2023-01-07T06:49:49.708Z,1009
2023-01-07T06:55:49.831Z,1009
2023-01-07T07:01:49.144Z,1009
2023-01-07T07:07:49.414Z,1009
2023-01-07T07:13:49.323Z,1009
2023-01-07T07:19:49.690Z,1009
2023-01-07T07:25:50.233Z,1009
2023-01-07T07:31:49.311Z,1009
2023-01-07T07:37:49.656Z,1009
2023-01-07T07:43:49.300Z,1009
2023-01-07T07:49:49.783Z,1008
2023-01-07T07:55:49.052Z,1008
2023-01-07T08:01:49.305Z,1008
2023-01-07T08:07:49.630Z,1008
2023-01-07T08:13:49.056Z,1008
2023-01-07T08:19:49.667Z,1008
2023-01-07T08:25:49.272Z,1008
2023-01-07T08:31:49.217Z,1008
2023-01-07T08:37:50.202Z,1008
2023-01-07T08:43:49.139Z,1008
2023-01-07T08:49:49.441Z,1008
2023-01-07T08:55:50.208Z,1008
2023-01-07T09:01:49.596Z,1008
2023-01-07T09:07:49.375Z,1008
2023-01-07T09:13:49.181Z,1008
2023-01-07T09:19:49.779Z,1008
2023-01-07T09:25:49.045Z,1007
2023-01-07T09:31:49.524Z,1007
2023-01-07T09:37:49.752Z,1007
2023-01-07T09:44:00.863Z,1007
2023-01-07T09:49:48.911Z,1007
2023-01-07T09:56:11.871Z,1007
2023-01-07T10:01:49.292Z,1007
2023-01-07T10:07:48.810Z,1007
2023-01-07T10:13:48.870Z,1007
2023-01-07T10:19:48.757Z,1007
2023-01-07T10:25:49.017Z,1007
2023-01-07T10:31:49.150Z,1007
2023-01-07T10:37:49.112Z,1007
2023-01-07T10:43:48.857Z,1007
2023-01-07T10:49:48.833Z,1007
2023-01-07T10:55:48.772Z,1007
2023-01-07T11:01:49.231Z,1007
2023-01-07T11:07:49.713Z,1006
2023-01-07T11:13:48.996Z,1006
2023-01-07T11:19:49.002Z,1006
2023-01-07T11:25:49.342Z,1006
2023-01-07T11:31:48.965Z,1006
2023-01-07T11:37:49.173Z,1006
2023-01-07T11:43:49.055Z,1006
2023-01-07T11:49:48.902Z,1006
2023-01-07T11:55:48.980Z,1005
2023-01-07T12:01:49.041Z,1005
2023-01-07T12:07:49.237Z,1005
2023-01-07T12:13:48.987Z,1005
2023-01-07T12:19:49.209Z,1005
2023-01-07T12:25:48.837Z,1005
2023-01-07T12:31:49.039Z,1005
2023-01-07T12:37:49.024Z,1005
2023-01-07T12:43:48.886Z,1005
2023-01-07T12:49:49.198Z,1004
2023-01-07T12:55:49.089Z,1004
2023-01-07T13:01:49.049Z,1004
2023-01-07T13:07:48.874Z,1004
2023-01-07T13:13:49.254Z,1004
2023-01-07T13:19:49.086Z,1004
2023-01-07T13:25:48.870Z,1004
2023-01-07T13:31:48.991Z,1004
2023-01-07T13:37:48.844Z,1004
2023-01-07T13:43:48.852Z,1004
2023-01-07T13:49:57.055Z,1004
2023-01-07T13:55:49.243Z,1004
2023-01-07T14:01:48.976Z,1004
2023-01-07T14:07:48.963Z,1004
2023-01-07T14:13:48.966Z,1003
2023-01-07T14:19:48.771Z,1003
2023-01-07T14:25:48.807Z,1003
2023-01-07T14:31:48.878Z,1003
2023-01-07T14:37:49.088Z,1003
2023-01-07T14:43:48.882Z,1003
2023-01-07T14:49:48.741Z,1003
2023-01-07T14:55:48.860Z,1003
2023-01-07T15:01:49.118Z,1003
2023-01-07T15:07:48.789Z,1003
2023-01-07T15:13:49.065Z,1003
2023-01-07T15:19:49.254Z,1003
2023-01-07T15:25:48.858Z,1003
2023-01-07T15:31:48.927Z,1003
2023-01-07T15:37:49.359Z,1003
2023-01-07T15:43:49.267Z,1003
2023-01-07T15:49:49.390Z,1003
2023-01-07T15:55:49.245Z,1003
2023-01-07T16:01:49.267Z,1003
2023-01-07T16:07:49.221Z,1003
2023-01-07T16:13:49.669Z,1003
2023-01-07T16:19:49.631Z,1002
2023-01-07T16:25:49.168Z,1002
2023-01-07T16:31:49.289Z,1002
2023-01-07T16:37:49.482Z,1002
2023-01-07T16:43:49.364Z,1002
2023-01-07T16:49:49.097Z,1002
2023-01-07T16:55:49.156Z,1002
2023-01-07T17:01:49.144Z,1002
2023-01-07T17:07:49.596Z,1002
2023-01-07T17:13:49.220Z,1002
2023-01-07T17:19:48.975Z,1002
2023-01-07T17:25:48.996Z,1002
2023-01-07T17:31:49.185Z,1002
2023-01-07T17:37:49.685Z,1002
2023-01-07T17:43:49.451Z,1002
2023-01-07T17:49:49.112Z,1002
2023-01-07T17:55:49.077Z,1002
2023-01-07T18:01:49.703Z,1002
2023-01-07T18:07:49.597Z,1002
2023-01-07T18:13:49.366Z,1002
2023-01-07T18:19:49.279Z,1002
2023-01-07T18:25:49.881Z,1002
2023-01-07T18:31:49.216Z,1002
2023-01-07T18:37:49.671Z,1002
2023-01-07T18:43:49.745Z,1001
2023-01-07T18:49:49.240Z,1001
2023-01-07T18:55:49.145Z,1001
2023-01-07T19:01:49.600Z,1001
2023-01-07T19:07:49.357Z,1001
2023-01-07T19:13:49.550Z,1001
2023-01-07T19:19:49.366Z,1001
2023-01-07T19:25:50.069Z,1001
2023-01-07T19:31:49.530Z,1001
2023-01-07T19:37:49.116Z,1002
2023-01-07T19:43:49.115Z,1001
2023-01-07T19:49:49.634Z,1001
2023-01-07T19:55:49.333Z,1001
2023-01-07T20:01:49.392Z,1001
2023-01-07T20:07:49.679Z,1001
2023-01-07T20:13:51.302Z,1001
2023-01-07T20:19:50.412Z,1001
2023-01-07T20:25:49.233Z,1001
2023-01-07T20:31:49.150Z,1001
2023-01-07T20:37:49.341Z,1001
2023-01-07T20:43:49.202Z,1001
2023-01-07T20:49:50.419Z,1001
2023-01-07T20:55:49.688Z,1001
2023-01-07T21:01:49.684Z,1001
2023-01-07T21:07:49.525Z,1001
2023-01-07T21:13:49.290Z,1001
2023-01-07T21:19:49.240Z,1001
2023-01-07T21:25:49.261Z,1001
2023-01-07T21:31:49.588Z,1001
2023-01-07T21:37:49.823Z,1000
2023-01-07T21:43:50.571Z,1000
2023-01-07T21:49:49.394Z,1001
2023-01-07T21:55:49.935Z,1001
2023-01-07T22:01:49.576Z,1001
2023-01-07T22:07:49.580Z,1001
2023-01-07T22:13:49.392Z,1000
2023-01-07T22:19:49.679Z,1000
2023-01-07T22:25:49.088Z,1000
2023-01-07T22:31:49.523Z,1000
2023-01-07T22:37:49.365Z,1000
2023-01-07T22:43:49.416Z,1000
2023-01-07T22:49:49.722Z,1000
2023-01-07T22:55:49.204Z,1000
2023-01-07T23:01:49.209Z,1000
2023-01-07T23:07:49.544Z,1000
2023-01-07T23:13:49.268Z,1000
2023-01-07T23:19:49.764Z,1000
2023-01-07T23:25:49.935Z,1000
2023-01-07T23:31:49.564Z,1000
2023-01-07T23:37:49.814Z,1000
2023-01-07T23:43:49.523Z,1000
2023-01-07T23:49:49.632Z,1000
2023-01-07T23:55:49.732Z,1000
